sensor_id;sensor_type;location;lat;lon;timestamp;pressure;altitude;pressure_sealevel;temperature;humidity
50684;BME280;36654;45.042;38.994;2024-02-21T00:00:38;102246.09;;;1.57;71.06
50684;BME280;36654;45.042;38.994;2024-02-21T00:03:04;102259.97;;;1.56;71.15
50684;BME280;36654;45.042;38.994;2024-02-21T00:05:30;102260.63;;;1.65;71.02
50684;BME280;36654;45.042;38.994;2024-02-21T00:07:58;102253.78;;;1.67;70.99
50684;BME280;36654;45.042;38.994;2024-02-21T00:10:24;102196.38;;;1.32;70.90
50684;BME280;36654;45.042;38.994;2024-02-21T00:12:50;102239.47;;;1.62;70.67
50684;BME280;36654;45.042;38.994;2024-02-21T00:15:16;102253.78;;;1.67;70.94
50684;BME280;36654;45.042;38.994;2024-02-21T00:17:43;102256.41;;;1.67;70.75
50684;BME280;36654;45.042;38.994;2024-02-21T00:20:09;102240.44;;;1.50;70.49
50684;BME280;36654;45.042;38.994;2024-02-21T00:22:36;102244.06;;;1.53;70.47
50684;BME280;36654;45.042;38.994;2024-02-21T00:25:01;102241.00;;;1.46;70.45
50684;BME280;36654;45.042;38.994;2024-02-21T00:27:29;102196.72;;;1.24;70.18
50684;BME280;36654;45.042;38.994;2024-02-21T00:29:56;102238.59;;;1.49;70.46
50684;BME280;36654;45.042;38.994;2024-02-21T00:32:21;102232.38;;;1.47;70.65
50684;BME280;36654;45.042;38.994;2024-02-21T00:34:47;102227.72;;;1.43;70.69
50684;BME280;36654;45.042;38.994;2024-02-21T00:37:13;102242.69;;;1.58;70.62
50684;BME280;36654;45.042;38.994;2024-02-21T00:39:38;102238.16;;;1.55;70.68
50684;BME280;36654;45.042;38.994;2024-02-21T00:42:04;102230.41;;;1.57;70.48
50684;BME280;36654;45.042;38.994;2024-02-21T00:44:30;102200.00;;;1.45;70.56
50684;BME280;36654;45.042;38.994;2024-02-21T00:46:55;102182.97;;;1.27;70.45
50684;BME280;36654;45.042;38.994;2024-02-21T00:49:21;102229.06;;;1.50;70.30
50684;BME280;36654;45.042;38.994;2024-02-21T00:51:47;102214.78;;;1.33;70.47
50684;BME280;36654;45.042;38.994;2024-02-21T00:54:13;102174.63;;;1.07;70.45
50684;BME280;36654;45.042;38.994;2024-02-21T00:56:38;102182.69;;;1.11;70.43
50684;BME280;36654;45.042;38.994;2024-02-21T00:59:04;102243.81;;;1.49;70.39
50684;BME280;36654;45.042;38.994;2024-02-21T01:01:30;102162.16;;;1.03;70.09
50684;BME280;36654;45.042;38.994;2024-02-21T01:03:55;102234.75;;;1.44;70.21
50684;BME280;36654;45.042;38.994;2024-02-21T01:06:21;102244.63;;;1.48;70.00
50684;BME280;36654;45.042;38.994;2024-02-21T01:08:47;102240.91;;;1.45;70.13
50684;BME280;36654;45.042;38.994;2024-02-21T01:11:14;102250.44;;;1.44;70.07
50684;BME280;36654;45.042;38.994;2024-02-21T01:13:40;102150.81;;;0.91;70.11
50684;BME280;36654;45.042;38.994;2024-02-21T01:16:06;102169.75;;;1.00;69.86
50684;BME280;36654;45.042;38.994;2024-02-21T01:18:33;102239.97;;;1.44;69.99
50684;BME280;36654;45.042;38.994;2024-02-21T01:20:59;102229.44;;;1.31;69.85
50684;BME280;36654;45.042;38.994;2024-02-21T01:23:25;102239.53;;;1.38;69.88
50684;BME280;36654;45.042;38.994;2024-02-21T01:25:51;102239.09;;;1.32;69.67
50684;BME280;36654;45.042;38.994;2024-02-21T01:28:18;102224.56;;;1.24;69.87
50684;BME280;36654;45.042;38.994;2024-02-21T01:30:44;102232.19;;;1.21;69.87
50684;BME280;36654;45.042;38.994;2024-02-21T01:33:10;102156.03;;;0.91;69.88
50684;BME280;36654;45.042;38.994;2024-02-21T01:35:36;102224.13;;;1.18;69.91
50684;BME280;36654;45.042;38.994;2024-02-21T01:38:02;102239.34;;;1.23;70.00
50684;BME280;36654;45.042;38.994;2024-02-21T01:40:28;102236.16;;;1.16;69.92
50684;BME280;36654;45.042;38.994;2024-02-21T01:42:55;102249.09;;;1.14;70.05
50684;BME280;36654;45.042;38.994;2024-02-21T01:45:21;102247.19;;;1.12;70.06
50684;BME280;36654;45.042;38.994;2024-02-21T01:47:47;102254.47;;;1.16;70.05
50684;BME280;36654;45.042;38.994;2024-02-21T01:50:14;102247.31;;;1.01;70.10
50684;BME280;36654;45.042;38.994;2024-02-21T01:52:41;102234.13;;;1.00;70.26
50684;BME280;36654;45.042;38.994;2024-02-21T01:55:09;102260.25;;;1.12;70.16
50684;BME280;36654;45.042;38.994;2024-02-21T01:57:36;102261.81;;;1.10;70.02
50684;BME280;36654;45.042;38.994;2024-02-21T02:00:02;102196.00;;;0.67;70.15
50684;BME280;36654;45.042;38.994;2024-02-21T02:02:29;102190.22;;;0.71;69.78
50684;BME280;36654;45.042;38.994;2024-02-21T02:04:55;102236.63;;;0.98;69.89
50684;BME280;36654;45.042;38.994;2024-02-21T02:07:21;102256.84;;;1.01;69.98
50684;BME280;36654;45.042;38.994;2024-02-21T02:09:47;102237.09;;;0.93;69.91
50684;BME280;36654;45.042;38.994;2024-02-21T02:12:13;102267.97;;;0.98;69.99
50684;BME280;36654;45.042;38.994;2024-02-21T02:14:38;102255.59;;;0.96;70.03
50684;BME280;36654;45.042;38.994;2024-02-21T02:17:05;102238.91;;;0.82;70.10
50684;BME280;36654;45.042;38.994;2024-02-21T02:19:31;102228.22;;;0.79;70.18
50684;BME280;36654;45.042;38.994;2024-02-21T02:22:12;102225.28;;;0.74;70.10
50684;BME280;36654;45.042;38.994;2024-02-21T02:24:41;102242.88;;;0.77;70.37
50684;BME280;36654;45.042;38.994;2024-02-21T02:27:09;102260.13;;;0.75;70.40
50684;BME280;36654;45.042;38.994;2024-02-21T02:29:35;102216.44;;;0.60;70.71
50684;BME280;36654;45.042;38.994;2024-02-21T02:32:01;102221.66;;;0.60;70.89
50684;BME280;36654;45.042;38.994;2024-02-21T02:34:26;102226.88;;;0.60;70.87
50684;BME280;36654;45.042;38.994;2024-02-21T02:36:52;102218.91;;;0.59;70.83
50684;BME280;36654;45.042;38.994;2024-02-21T02:39:18;102243.44;;;0.73;70.90
50684;BME280;36654;45.042;38.994;2024-02-21T02:41:43;102166.03;;;0.38;71.03
50684;BME280;36654;45.042;38.994;2024-02-21T02:44:09;102234.00;;;0.75;70.92
50684;BME280;36654;45.042;38.994;2024-02-21T02:46:34;102237.66;;;0.77;71.05
50684;BME280;36654;45.042;38.994;2024-02-21T02:49:00;102242.88;;;0.77;71.09
50684;BME280;36654;45.042;38.994;2024-02-21T02:51:26;102239.56;;;0.79;70.95
50684;BME280;36654;45.042;38.994;2024-02-21T02:53:51;102248.09;;;0.77;70.94
50684;BME280;36654;45.042;38.994;2024-02-21T02:56:17;102243.00;;;0.78;71.05
50684;BME280;36654;45.042;38.994;2024-02-21T02:58:43;102221.41;;;0.57;71.21
50684;BME280;36654;45.042;38.994;2024-02-21T03:01:09;102247.06;;;0.75;71.03
50684;BME280;36654;45.042;38.994;2024-02-21T03:03:35;102251.72;;;0.79;71.28
50684;BME280;36654;45.042;38.994;2024-02-21T03:06:01;102237.44;;;0.74;71.19
50684;BME280;36654;45.042;38.994;2024-02-21T03:08:26;102220.06;;;0.62;71.29
50684;BME280;36654;45.042;38.994;2024-02-21T03:10:52;102233.44;;;0.67;71.39
50684;BME280;36654;45.042;38.994;2024-02-21T03:13:18;102208.25;;;0.56;71.59
50684;BME280;36654;45.042;38.994;2024-02-21T03:15:44;102243.44;;;0.73;71.37
50684;BME280;36654;45.042;38.994;2024-02-21T03:18:09;102243.56;;;0.74;71.53
50684;BME280;36654;45.042;38.994;2024-02-21T03:20:35;102175.53;;;0.37;71.65
50684;BME280;36654;45.042;38.994;2024-02-21T03:23:01;102237.22;;;0.71;71.63
50684;BME280;36654;45.042;38.994;2024-02-21T03:25:27;102234.38;;;0.68;71.49
50684;BME280;36654;45.042;38.994;2024-02-21T03:27:53;102250.69;;;0.77;71.65
50684;BME280;36654;45.042;38.994;2024-02-21T03:30:18;102230.97;;;0.69;71.60
50684;BME280;36654;45.042;38.994;2024-02-21T03:32:45;102250.69;;;0.77;71.64
50684;BME280;36654;45.042;38.994;2024-02-21T03:35:11;102230.50;;;0.62;71.67
50684;BME280;36654;45.042;38.994;2024-02-21T03:37:37;102198.59;;;0.43;71.69
50684;BME280;36654;45.042;38.994;2024-02-21T03:40:05;102237.75;;;0.67;71.85
50684;BME280;36654;45.042;38.994;2024-02-21T03:42:32;102236.63;;;0.63;72.03
50684;BME280;36654;45.042;38.994;2024-02-21T03:44:57;102235.72;;;0.62;72.14
50684;BME280;36654;45.042;38.994;2024-02-21T03:47:23;102258.19;;;0.72;72.23
50684;BME280;36654;45.042;38.994;2024-02-21T03:49:49;102241.63;;;0.72;72.22
50684;BME280;36654;45.042;38.994;2024-02-21T03:52:15;102220.63;;;0.58;72.16
50684;BME280;36654;45.042;38.994;2024-02-21T03:54:42;102237.75;;;0.67;71.99
50684;BME280;36654;45.042;38.994;2024-02-21T03:57:08;102261.38;;;0.68;72.00
50684;BME280;36654;45.042;38.994;2024-02-21T03:59:33;102259.66;;;0.69;72.32
50684;BME280;36654;45.042;38.994;2024-02-21T04:01:59;102249.56;;;0.61;72.45
50684;BME280;36654;45.042;38.994;2024-02-21T04:04:25;102264.09;;;0.70;72.53
50684;BME280;36654;45.042;38.994;2024-02-21T04:06:52;102254.56;;;0.70;72.40
50684;BME280;36654;45.042;38.994;2024-02-21T04:09:18;102254.56;;;0.58;72.53
50684;BME280;36654;45.042;38.994;2024-02-21T04:11:44;102242.28;;;0.57;72.65
50684;BME280;36654;45.042;38.994;2024-02-21T04:14:09;102264.09;;;0.70;72.68
50684;BME280;36654;45.042;38.994;2024-02-21T04:16:36;102257.59;;;0.64;72.61
50684;BME280;36654;45.042;38.994;2024-02-21T04:19:02;102246.16;;;0.62;72.35
50684;BME280;36654;45.042;38.994;2024-02-21T04:21:28;102263.41;;;0.72;72.62
50684;BME280;36654;45.042;38.994;2024-02-21T04:23:53;102269.56;;;0.73;72.52
50684;BME280;36654;45.042;38.994;2024-02-21T04:26:20;102231.63;;;0.54;72.78
50684;BME280;36654;45.042;38.994;2024-02-21T04:28:45;102263.41;;;0.72;72.73
50684;BME280;36654;45.042;38.994;2024-02-21T04:31:11;102283.88;;;0.78;72.60
50684;BME280;36654;45.042;38.994;2024-02-21T04:33:37;102256.03;;;0.67;72.43
50684;BME280;36654;45.042;38.994;2024-02-21T04:36:03;102215.72;;;0.39;72.62
50684;BME280;36654;45.042;38.994;2024-02-21T04:38:28;102291.22;;;0.72;72.81
50684;BME280;36654;45.042;38.994;2024-02-21T04:40:55;102280.41;;;0.67;72.88
50684;BME280;36654;45.042;38.994;2024-02-21T04:43:26;102269.44;;;0.71;72.92
50684;BME280;36654;45.042;38.994;2024-02-21T04:45:52;102273.16;;;0.75;72.78
50684;BME280;36654;45.042;38.994;2024-02-21T04:48:19;102292.94;;;0.83;72.69
50684;BME280;36654;45.042;38.994;2024-02-21T04:50:44;102303.41;;;0.83;72.72
50684;BME280;36654;45.042;38.994;2024-02-21T04:53:10;102282.25;;;0.80;72.72
50684;BME280;36654;45.042;38.994;2024-02-21T04:55:36;102234.69;;;0.49;72.74
50684;BME280;36654;45.042;38.994;2024-02-21T04:58:01;102255.25;;;0.68;72.63
50684;BME280;36654;45.042;38.994;2024-02-21T05:00:27;102282.06;;;0.89;72.79
50684;BME280;36654;45.042;38.994;2024-02-21T05:02:53;102267.53;;;0.80;72.95
50684;BME280;36654;45.042;38.994;2024-02-21T05:05:19;102290.69;;;0.99;72.82
50684;BME280;36654;45.042;38.994;2024-02-21T05:07:44;102225.50;;;0.66;72.53
50684;BME280;36654;45.042;38.994;2024-02-21T05:10:12;102284.78;;;0.90;72.11
50684;BME280;36654;45.042;38.994;2024-02-21T05:12:38;102299.09;;;0.95;72.48
50684;BME280;36654;45.042;38.994;2024-02-21T05:15:04;102295.69;;;0.96;72.39
50684;BME280;36654;45.042;38.994;2024-02-21T05:17:30;102281.16;;;0.88;72.35
50684;BME280;36654;45.042;38.994;2024-02-21T05:19:58;102299.31;;;0.98;72.49
50684;BME280;36654;45.042;38.994;2024-02-21T05:22:24;102309.97;;;1.01;72.40
50684;BME280;36654;45.042;38.994;2024-02-21T05:24:50;102292.03;;;0.94;72.46
50684;BME280;36654;45.042;38.994;2024-02-21T05:27:15;102323.53;;;1.07;72.38
50684;BME280;36654;45.042;38.994;2024-02-21T05:29:41;102289.75;;;0.87;72.60
50684;BME280;36654;45.042;38.994;2024-02-21T05:32:07;102243.09;;;0.56;72.18
50684;BME280;36654;45.042;38.994;2024-02-21T05:34:34;102319.97;;;1.07;72.21
50684;BME280;36654;45.042;38.994;2024-02-21T05:37:00;102316.59;;;1.08;72.29
50684;BME280;36654;45.042;38.994;2024-02-21T05:39:26;102297.47;;;0.97;72.24
50684;BME280;36654;45.042;38.994;2024-02-21T05:41:52;102278.66;;;1.01;72.06
50684;BME280;36654;45.042;38.994;2024-02-21T05:44:18;102264.13;;;0.93;72.23
50684;BME280;36654;45.042;38.994;2024-02-21T05:46:44;102314.09;;;1.21;72.21
50684;BME280;36654;45.042;38.994;2024-02-21T05:49:11;102271.84;;;1.03;72.04
50684;BME280;36654;45.042;38.994;2024-02-21T05:51:37;102308.84;;;1.33;72.05
50684;BME280;36654;45.042;38.994;2024-02-21T05:54:03;102238.22;;;0.96;71.92
50684;BME280;36654;45.042;38.994;2024-02-21T05:56:29;102321.00;;;1.44;71.97
50684;BME280;36654;45.042;38.994;2024-02-21T05:58:54;102324.06;;;1.50;71.53
50684;BME280;36654;45.042;38.994;2024-02-21T06:01:20;102288.16;;;1.36;71.30
50684;BME280;36654;45.042;38.994;2024-02-21T06:03:48;102296.34;;;1.41;71.26
50684;BME280;36654;45.042;38.994;2024-02-21T06:06:16;102323.81;;;1.59;71.18
50684;BME280;36654;45.042;38.994;2024-02-21T06:08:42;102296.09;;;1.49;71.05
50684;BME280;36654;45.042;38.994;2024-02-21T06:11:08;102326.56;;;1.61;71.13
50684;BME280;36654;45.042;38.994;2024-02-21T06:13:38;102315.22;;;1.48;70.73
50684;BME280;36654;45.042;38.994;2024-02-21T06:16:06;102335.44;;;1.63;70.98
50684;BME280;36654;45.042;38.994;2024-02-21T06:18:31;102314.84;;;1.56;70.78
50684;BME280;36654;45.042;38.994;2024-02-21T06:20:57;102318.25;;;1.66;70.78
50684;BME280;36654;45.042;38.994;2024-02-21T06:23:23;102298.38;;;1.57;70.68
50684;BME280;36654;45.042;38.994;2024-02-21T06:25:48;102279.41;;;1.47;70.91
50684;BME280;36654;45.042;38.994;2024-02-21T06:28:14;102309.69;;;1.81;70.61
50684;BME280;36654;45.042;38.994;2024-02-21T06:30:42;102310.81;;;1.84;70.35
50684;BME280;36654;45.042;38.994;2024-02-21T06:33:07;102320.91;;;1.91;70.15
50684;BME280;36654;45.042;38.994;2024-02-21T06:35:34;102268.84;;;1.58;70.02
50684;BME280;36654;45.042;38.994;2024-02-21T06:38:00;102275.16;;;1.73;69.78
50684;BME280;36654;45.042;38.994;2024-02-21T06:40:26;102300.19;;;1.94;69.99
50684;BME280;36654;45.042;38.994;2024-02-21T06:42:52;102304.28;;;2.03;69.84
50684;BME280;36654;45.042;38.994;2024-02-21T06:45:18;102314.13;;;2.07;69.79
50684;BME280;36654;45.042;38.994;2024-02-21T06:47:43;102265.56;;;1.85;69.45
50684;BME280;36654;45.042;38.994;2024-02-21T06:50:09;102305.59;;;2.09;69.51
50684;BME280;36654;45.042;38.994;2024-02-21T06:52:36;102319.34;;;2.19;69.69
50684;BME280;36654;45.042;38.994;2024-02-21T06:55:02;102250.28;;;1.91;69.46
50684;BME280;36654;45.042;38.994;2024-02-21T06:57:28;102308.19;;;2.21;68.95
50684;BME280;36654;45.042;38.994;2024-02-21T06:59:54;102301.16;;;2.20;68.81
50684;BME280;36654;45.042;38.994;2024-02-21T07:02:20;102314.16;;;2.32;69.00
50684;BME280;36654;45.042;38.994;2024-02-21T07:04:45;102327.47;;;2.35;68.95
50684;BME280;36654;45.042;38.994;2024-02-21T07:07:11;102312.69;;;2.35;68.67
50684;BME280;36654;45.042;38.994;2024-02-21T07:09:38;102326.63;;;2.48;68.58
50684;BME280;36654;45.042;38.994;2024-02-21T07:12:06;102319.16;;;2.54;68.59
50684;BME280;36654;45.042;38.994;2024-02-21T07:14:35;102251.94;;;2.28;68.43
50684;BME280;36654;45.042;38.994;2024-02-21T07:17:01;102317.00;;;2.73;68.09
50684;BME280;36654;45.042;38.994;2024-02-21T07:19:27;102297.06;;;2.62;68.18
50684;BME280;36654;45.042;38.994;2024-02-21T07:21:52;102305.00;;;2.64;68.02
50684;BME280;36654;45.042;38.994;2024-02-21T07:24:18;102310.19;;;2.75;67.79
50684;BME280;36654;45.042;38.994;2024-02-21T07:26:45;102292.44;;;2.71;67.46
50684;BME280;36654;45.042;38.994;2024-02-21T07:29:11;102316.44;;;2.91;67.42
50684;BME280;36654;45.042;38.994;2024-02-21T07:31:41;102337.22;;;3.01;67.42
50684;BME280;36654;45.042;38.994;2024-02-21T07:34:08;102250.31;;;2.68;67.21
50684;BME280;36654;45.042;38.994;2024-02-21T07:36:33;102318.09;;;3.15;66.96
50684;BME280;36654;45.042;38.994;2024-02-21T07:38:59;102312.41;;;3.09;66.58
50684;BME280;36654;45.042;38.994;2024-02-21T07:41:25;102314.06;;;3.20;66.55
50684;BME280;36654;45.042;38.994;2024-02-21T07:43:51;102320.50;;;3.26;66.28
50684;BME280;36654;45.042;38.994;2024-02-21T07:46:18;102297.13;;;3.15;66.07
50684;BME280;36654;45.042;38.994;2024-02-21T07:48:45;102320.50;;;3.26;66.12
50684;BME280;36654;45.042;38.994;2024-02-21T07:51:11;102316.88;;;3.23;66.04
50684;BME280;36654;45.042;38.994;2024-02-21T07:53:38;102306.78;;;3.16;66.20
50684;BME280;36654;45.042;38.994;2024-02-21T07:56:04;102314.84;;;3.19;66.13
50684;BME280;36654;45.042;38.994;2024-02-21T07:58:30;102326.56;;;3.24;65.99
50684;BME280;36654;45.042;38.994;2024-02-21T08:00:56;102322.63;;;3.18;66.20
50684;BME280;36654;45.042;38.994;2024-02-21T08:03:21;102314.44;;;3.13;66.26
50684;BME280;36654;45.042;38.994;2024-02-21T08:05:48;102268.06;;;2.86;66.39
50684;BME280;36654;45.042;38.994;2024-02-21T08:08:13;102320.31;;;3.22;66.63
50684;BME280;36654;45.042;38.994;2024-02-21T08:10:43;102302.56;;;3.18;66.88
50684;BME280;36654;45.042;38.994;2024-02-21T08:13:09;102304.47;;;3.34;66.84
50684;BME280;36654;45.042;38.994;2024-02-21T08:15:36;102318.88;;;3.54;66.57
50684;BME280;36654;45.042;38.994;2024-02-21T08:18:04;102321.38;;;3.66;66.49
50684;BME280;36654;45.042;38.994;2024-02-21T08:20:30;102319.66;;;3.80;66.15
50684;BME280;36654;45.042;38.994;2024-02-21T08:22:55;102321.41;;;3.94;65.68
50684;BME280;36654;45.042;38.994;2024-02-21T08:25:21;102315.97;;;4.04;65.15
50684;BME280;36654;45.042;38.994;2024-02-21T08:27:46;102321.41;;;4.07;64.87
50684;BME280;36654;45.042;38.994;2024-02-21T08:30:14;102313.91;;;4.14;64.92
50684;BME280;36654;45.042;38.994;2024-02-21T08:32:39;102294.81;;;4.16;64.88
50684;BME280;36654;45.042;38.994;2024-02-21T08:35:05;102269.19;;;4.12;64.57
50684;BME280;36654;45.042;38.994;2024-02-21T08:37:31;102288.59;;;4.29;64.60
50684;BME280;36654;45.042;38.994;2024-02-21T08:39:57;102234.97;;;4.10;64.22
50684;BME280;36654;45.042;38.994;2024-02-21T08:42:23;102274.66;;;4.30;63.92
50684;BME280;36654;45.042;38.994;2024-02-21T08:44:49;102279.66;;;4.40;64.24
50684;BME280;36654;45.042;38.994;2024-02-21T08:47:15;102284.66;;;4.50;64.26
50684;BME280;36654;45.042;38.994;2024-02-21T08:49:40;102231.22;;;4.35;63.72
50684;BME280;36654;45.042;38.994;2024-02-21T08:52:06;102280.69;;;4.72;63.42
50684;BME280;36654;45.042;38.994;2024-02-21T08:54:32;102272.88;;;4.73;62.84
50684;BME280;36654;45.042;38.994;2024-02-21T08:56:59;102293.13;;;4.89;62.29
50684;BME280;36654;45.042;38.994;2024-02-21T08:59:24;102277.81;;;4.82;62.22
50684;BME280;36654;45.042;38.994;2024-02-21T09:01:51;102291.38;;;5.19;61.72
50684;BME280;36654;45.042;38.994;2024-02-21T09:04:20;102303.38;;;5.46;61.13
50684;BME280;36654;45.042;38.994;2024-02-21T09:06:46;102239.06;;;5.40;60.20
50684;BME280;36654;45.042;38.994;2024-02-21T09:09:12;102272.69;;;5.77;59.51
50684;BME280;36654;45.042;38.994;2024-02-21T09:11:38;102279.44;;;5.89;59.18
50684;BME280;36654;45.042;38.994;2024-02-21T09:14:05;102294.00;;;5.82;58.97
50684;BME280;36654;45.042;38.994;2024-02-21T09:16:35;102282.88;;;5.71;58.89
50684;BME280;36654;45.042;38.994;2024-02-21T09:19:00;102288.59;;;5.48;59.05
50684;BME280;36654;45.042;38.994;2024-02-21T09:21:26;102298.06;;;5.29;59.35
50684;BME280;36654;45.042;38.994;2024-02-21T09:23:53;102282.78;;;5.07;59.79
50684;BME280;36654;45.042;38.994;2024-02-21T09:26:19;102289.38;;;5.01;60.01
50684;BME280;36654;45.042;38.994;2024-02-21T09:28:44;102259.03;;;4.76;60.33
50684;BME280;36654;45.042;38.994;2024-02-21T09:31:10;102296.47;;;4.87;60.29
50684;BME280;36654;45.042;38.994;2024-02-21T09:33:36;102288.09;;;4.79;60.29
50684;BME280;36654;45.042;38.994;2024-02-21T09:36:03;102284.31;;;4.74;60.58
50684;BME280;36654;45.042;38.994;2024-02-21T09:38:31;102260.03;;;4.63;60.97
50684;BME280;36654;45.042;38.994;2024-02-21T09:43:34;102256.78;;;4.82;60.96
50684;BME280;36654;45.042;38.994;2024-02-21T09:46:00;102268.97;;;4.96;59.72
50684;BME280;36654;45.042;38.994;2024-02-21T09:51:02;102253.69;;;5.04;58.69
50684;BME280;36654;45.042;38.994;2024-02-21T09:53:28;102253.75;;;5.06;58.75
50684;BME280;36654;45.042;38.994;2024-02-21T09:55:56;102221.22;;;4.89;58.74
50684;BME280;36654;45.042;38.994;2024-02-21T09:58:23;102268.91;;;5.10;59.01
50684;BME280;36654;45.042;38.994;2024-02-21T10:00:49;102256.38;;;5.06;59.20
50684;BME280;36654;45.042;38.994;2024-02-21T10:03:15;102255.75;;;5.10;59.31
50684;BME280;36654;45.042;38.994;2024-02-21T10:05:47;102199.97;;;4.84;58.71
50684;BME280;36654;45.042;38.994;2024-02-21T10:08:16;102210.94;;;4.77;58.30
50684;BME280;36654;45.042;38.994;2024-02-21T10:10:46;102247.31;;;5.01;58.48
50684;BME280;36654;45.042;38.994;2024-02-21T10:13:27;102240.06;;;4.96;58.49
50684;BME280;36654;45.042;38.994;2024-02-21T10:16:06;102239.00;;;4.93;58.28
50684;BME280;36654;45.042;38.994;2024-02-21T10:18:32;102247.16;;;4.97;58.43
50684;BME280;36654;45.042;38.994;2024-02-21T10:23:27;102241.84;;;5.27;56.97
50684;BME280;36654;45.042;38.994;2024-02-21T10:25:52;102213.56;;;5.23;57.07
50684;BME280;36654;45.042;38.994;2024-02-21T10:28:18;102208.13;;;5.20;56.92
50684;BME280;36654;45.042;38.994;2024-02-21T10:30:51;102231.94;;;5.38;57.03
50684;BME280;36654;45.042;38.994;2024-02-21T10:33:18;102223.97;;;5.53;56.24
50684;BME280;36654;45.042;38.994;2024-02-21T10:35:47;102227.94;;;5.61;55.49
50684;BME280;36654;45.042;38.994;2024-02-21T10:38:16;102224.81;;;5.68;55.34
50684;BME280;36654;45.042;38.994;2024-02-21T10:40:42;102212.81;;;5.73;55.16
50684;BME280;36654;45.042;38.994;2024-02-21T10:43:12;102202.28;;;5.73;54.39
50684;BME280;36654;45.042;38.994;2024-02-21T10:45:38;102193.72;;;5.61;53.78
50684;BME280;36654;45.042;38.994;2024-02-21T10:48:15;102200.66;;;5.75;53.83
50684;BME280;36654;45.042;38.994;2024-02-21T10:51:07;102213.31;;;5.82;53.33
50684;BME280;36654;45.042;38.994;2024-02-21T10:56:32;102208.50;;;5.59;51.70
50684;BME280;36654;45.042;38.994;2024-02-21T10:59:05;102199.47;;;5.54;51.69
50684;BME280;36654;45.042;38.994;2024-02-21T11:01:32;102180.25;;;5.55;51.21
50684;BME280;36654;45.042;38.994;2024-02-21T11:04:16;102188.88;;;5.69;51.55
50684;BME280;36654;45.042;38.994;2024-02-21T11:06:42;102175.56;;;5.66;52.15
50684;BME280;36654;45.042;38.994;2024-02-21T11:09:10;102143.28;;;5.52;52.06
50684;BME280;36654;45.042;38.994;2024-02-21T11:11:40;102130.75;;;5.48;51.65
50684;BME280;36654;45.042;38.994;2024-02-21T11:16:37;102186.09;;;5.82;51.07
50684;BME280;36654;45.042;38.994;2024-02-21T11:19:29;102174.34;;;5.75;51.34
50684;BME280;36654;45.042;38.994;2024-02-21T11:21:54;102191.28;;;5.80;50.38
50684;BME280;36654;45.042;38.994;2024-02-21T11:24:33;102179.75;;;5.78;50.48
50684;BME280;36654;45.042;38.994;2024-02-21T11:27:13;102187.50;;;5.75;50.64
50684;BME280;36654;45.042;38.994;2024-02-21T11:29:46;102185.03;;;5.78;51.03
50684;BME280;36654;45.042;38.994;2024-02-21T11:32:16;102173.91;;;5.84;51.03
50684;BME280;36654;45.042;38.994;2024-02-21T11:35:02;102182.59;;;5.98;50.73
50684;BME280;36654;45.042;38.994;2024-02-21T11:37:30;102169.44;;;5.98;50.41
50684;BME280;36654;45.042;38.994;2024-02-21T11:39:59;102173.84;;;5.99;50.13
50684;BME280;36654;45.042;38.994;2024-02-21T11:42:28;102165.16;;;6.00;50.33
50684;BME280;36654;45.042;38.994;2024-02-21T11:44:59;102163.06;;;6.11;50.77
50684;BME280;36654;45.042;38.994;2024-02-21T11:47:27;102166.09;;;6.18;50.25
50684;BME280;36654;45.042;38.994;2024-02-21T11:49:54;102165.19;;;6.18;49.67
50684;BME280;36654;45.042;38.994;2024-02-21T11:52:22;102162.31;;;6.13;49.23
50684;BME280;36654;45.042;38.994;2024-02-21T11:54:51;102173.59;;;6.11;49.60
50684;BME280;36654;45.042;38.994;2024-02-21T11:57:17;102176.00;;;6.06;49.28
50684;BME280;36654;45.042;38.994;2024-02-21T11:59:44;102165.00;;;5.97;49.77
50684;BME280;36654;45.042;38.994;2024-02-21T12:02:11;102157.91;;;5.96;49.76
50684;BME280;36654;45.042;38.994;2024-02-21T12:04:37;102172.84;;;6.13;49.70
50684;BME280;36654;45.042;38.994;2024-02-21T12:07:04;102123.25;;;5.88;50.28
50684;BME280;36654;45.042;38.994;2024-02-21T12:09:30;102181.75;;;6.15;51.42
50684;BME280;36654;45.042;38.994;2024-02-21T12:12:03;102176.63;;;6.18;51.47
50684;BME280;36654;45.042;38.994;2024-02-21T12:14:31;102173.50;;;6.25;51.35
50684;BME280;36654;45.042;38.994;2024-02-21T12:16:57;102157.22;;;6.16;51.59
50684;BME280;36654;45.042;38.994;2024-02-21T12:19:23;102180.25;;;6.20;51.70
50684;BME280;36654;45.042;38.994;2024-02-21T12:21:49;102164.44;;;6.20;51.80
50684;BME280;36654;45.042;38.994;2024-02-21T12:24:20;102181.00;;;6.18;51.93
50684;BME280;36654;45.042;38.994;2024-02-21T12:26:46;102097.72;;;5.69;51.87
50684;BME280;36654;45.042;38.994;2024-02-21T12:29:12;102175.34;;;5.94;52.10
50684;BME280;36654;45.042;38.994;2024-02-21T12:31:39;102179.81;;;5.95;52.41
50684;BME280;36654;45.042;38.994;2024-02-21T12:34:05;102178.63;;;5.90;52.85
50684;BME280;36654;45.042;38.994;2024-02-21T12:36:40;102180.25;;;5.88;52.98
50684;BME280;36654;45.042;38.994;2024-02-21T12:39:07;102177.72;;;5.89;53.18
50684;BME280;36654;45.042;38.994;2024-02-21T12:41:34;102177.97;;;5.77;52.97
50684;BME280;36654;45.042;38.994;2024-02-21T12:44:00;102186.94;;;5.65;53.42
50684;BME280;36654;45.042;38.994;2024-02-21T12:46:26;102167.16;;;5.56;53.29
50684;BME280;36654;45.042;38.994;2024-02-21T12:48:52;102196.19;;;5.58;53.55
50684;BME280;36654;45.042;38.994;2024-02-21T12:51:18;102138.63;;;5.31;53.72
50684;BME280;36654;45.042;38.994;2024-02-21T12:53:47;102187.16;;;5.53;53.75
50684;BME280;36654;45.042;38.994;2024-02-21T12:56:15;102197.84;;;5.56;53.89
50684;BME280;36654;45.042;38.994;2024-02-21T12:58:41;102139.88;;;5.38;54.23
50684;BME280;36654;45.042;38.994;2024-02-21T13:01:07;102199.66;;;5.73;54.10